Lexington, MA

4:28 PM EDT on August 27, 2014 (GMT -0400)
Logan International | Change Station
CLOSE
Current Station
Airport
Location: Boston,
Elevation: 20 ft
Nearby Weather Stations

Elev 20 ft 42.36 °N, 71.01 °W | Updated 34 minutes ago

Scattered Clouds
Scattered Clouds
90 °F
Feels Like 93 °F
N
14
Wind Variable Wind from SW
Gusts 25 mph

Today
High -- | Low -- °F
--% Chance of Precip.
Yesterday
High -- | Low -- °F
Precip. -- in
6:04 AM 7:27 PM
Waxing Crescent, 5% visible
Pressure 29.85 in
Visibility 10.0 miles
Clouds Few 5000 ft
Scattered Clouds 25000 ft
Heat Index 93 °F
Dew Point 67 °F
Humidity 46%
Rainfall 0.00 in
Snow Depth Not available.
UV 4 out of 12
Pollen 10.20 out of 12
Ozone Good
PM2.5 Moderate
Flu Activity Not available.
METAR KBOS 271954Z 22012G22KT 10SM FEW050 SCT250 32/19 A2984 RMK AO2 SLP106 T03220194

More Conditions Fewer Conditions

Pressure 29.85 in
Visibility 10.0 miles
Clouds Few 5000 ft
Scattered Clouds 25000 ft
Heat Index 93 °F
Dew Point 67 °F
Humidity 46%
Rainfall 0.00 in
Snow Depth Not available.
UV 4 out of 12
Pollen 10.20 out of 12
Ozone Good
PM2.5 Moderate
Flu Activity Not available.
METAR KBOS 271954Z 22012G22KT 10SM FEW050 SCT250 32/19 A2984 RMK AO2 SLP106 T03220194

More Conditions Fewer Conditions

10-Day Weather Forecast

Almanac

Astronomy

Aug. 27, 2014 Rise Set
Actual Time 6:04 AM EDT 7:27 PM EDT
Civil Twilight 5:35 AM EDT 7:56 PM EDT
Nautical Twilight 4:59 AM EDT 8:31 PM EDT
Astronomical Twilight 4:22 AM EDT 9:08 PM EDT
Moon 8:01 AM EDT 8:14 PM EDT
Length of Visible Light 14h 21m
Length of Day
13h 22m
Tomorrow will be 2m 43s shorter.
Waxing Crescent, 5% of the Moon is Illuminated
Today
Waxing Crescent
Sep 2
First Quarter
Sep 8
Full
Sep 15
Last Quarter
Sep 24
New

Today's Extremes

State Highs State Lows

Community

WunderPhotos

Upload Photos

1,747,781 photos uploaded!

Nearby

Air Quality

  Air Quality AQ Index Pollutant
Yesterday Good
PM2.5
Yesterday Good
OZONE
Current Moderate
PM2.5
Current Good
OZONE
Wednesday Moderate
PM2.5
Wednesday Moderate
OZONE

Snow Depth

Station Depth Elevation
No new snow has been reported.

Earthquake Activity

City Distance Mag. Time & Date
No recent earthquake activity has been reported nearby.
Minimum magnitude displayed is 2.5.

Coastal Water Temperatures

Place Temperature
Boston, MA 68.0 °F
Providence, RI 73.0 °F
Fall River, MA 73.9 °F
Conimicut Light, RI 72.0 °F

Nearby Weather Stations